createdAt,value
2022-07-30T00:00:08.941Z,13.35
2022-07-30T00:02:39.973Z,17.73
2022-07-30T00:05:11.870Z,13.35
2022-07-30T00:07:42.866Z,14.45
2022-07-30T00:10:14.120Z,17.62
2022-07-30T00:12:45.160Z,19.92
2022-07-30T00:15:15.970Z,17.98
2022-07-30T00:17:49.318Z,18.55
2022-07-30T00:20:19.626Z,15.30
2022-07-30T00:22:50.589Z,13.05
2022-07-30T00:25:21.722Z,16.42
2022-07-30T00:27:52.843Z,13.58
2022-07-30T00:30:23.843Z,15.15
2022-07-30T00:32:54.668Z,18.35
2022-07-30T00:35:27.790Z,12.23
2022-07-30T00:38:03.476Z,14.47
2022-07-30T00:40:34.524Z,16.95
2022-07-30T00:43:05.952Z,13.28
2022-07-30T00:45:37.995Z,18.67
2022-07-30T00:48:09.088Z,21.25
2022-07-30T00:50:40.243Z,20.32
2022-07-30T00:53:14.012Z,15.70
2022-07-30T00:55:44.967Z,16.40
2022-07-30T00:58:15.847Z,15.48
2022-07-30T01:00:47.084Z,17.10
2022-07-30T01:03:18.080Z,15.23
2022-07-30T01:05:49.101Z,16.17
2022-07-30T01:08:20.089Z,17.25
2022-07-30T01:10:50.902Z,13.32
2022-07-30T01:13:21.669Z,19.45
2022-07-30T01:15:52.882Z,23.85
2022-07-30T01:18:25.031Z,18.23
2022-07-30T01:20:58.332Z,17.27
2022-07-30T01:23:31.463Z,21.55
2022-07-30T01:26:03.237Z,21.75
2022-07-30T01:28:36.478Z,20.08
2022-07-30T01:31:09.324Z,18.55
2022-07-30T01:33:42.518Z,16.37
2022-07-30T01:36:15.807Z,21.05
2022-07-30T01:38:48.240Z,15.60
2022-07-30T01:41:20.532Z,14.73
2022-07-30T01:43:51.538Z,17.00
2022-07-30T01:46:23.936Z,15.60
2022-07-30T01:48:57.780Z,14.30
2022-07-30T01:51:37.355Z,15.75
2022-07-30T01:54:06.568Z,16.48
2022-07-30T01:56:39.826Z,14.75
2022-07-30T01:59:13.052Z,15.30
2022-07-30T02:01:44.190Z,15.95
2022-07-30T02:04:15.048Z,15.78
2022-07-30T02:06:48.620Z,15.25
2022-07-30T02:09:23.021Z,17.27
2022-07-30T02:11:57.721Z,15.78
2022-07-30T02:14:31.039Z,14.15
2022-07-30T02:17:03.643Z,15.00
2022-07-30T02:19:37.022Z,16.12
2022-07-30T02:22:11.714Z,18.30
2022-07-30T02:24:45.731Z,16.07
2022-07-30T02:27:19.038Z,15.25
2022-07-30T02:29:51.447Z,14.70
2022-07-30T02:32:26.756Z,14.45
2022-07-30T02:34:59.614Z,16.23
2022-07-30T02:37:40.994Z,17.05
2022-07-30T02:40:04.933Z,17.23
2022-07-30T02:42:36.773Z,23.05
2022-07-30T02:45:08.408Z,14.20
2022-07-30T02:47:41.027Z,19.10
2022-07-30T02:50:13.267Z,15.25
2022-07-30T02:52:45.270Z,16.40
2022-07-30T02:55:18.712Z,15.45
2022-07-30T02:57:51.065Z,15.50
2022-07-30T03:00:23.370Z,15.30
2022-07-30T03:02:56.963Z,14.87
2022-07-30T03:05:29.540Z,14.47
2022-07-30T03:08:02.563Z,15.58
2022-07-30T03:10:33.876Z,12.85
2022-07-30T03:13:08.451Z,14.28
2022-07-30T03:15:59.099Z,16.95
2022-07-30T03:18:32.848Z,16.87
2022-07-30T03:21:06.444Z,13.07
2022-07-30T03:23:39.961Z,14.63
2022-07-30T03:26:14.210Z,12.90
2022-07-30T03:28:47.365Z,11.88
2022-07-30T03:31:19.255Z,13.62
2022-07-30T03:33:50.384Z,14.60
2022-07-30T03:36:23.233Z,12.35
2022-07-30T03:38:58.563Z,13.50
2022-07-30T03:41:31.066Z,12.50
2022-07-30T03:44:02.720Z,10.70
2022-07-30T03:46:35.551Z,16.07
2022-07-30T03:49:07.201Z,12.33
2022-07-30T03:51:39.750Z,12.23
2022-07-30T03:54:13.733Z,12.93
2022-07-30T03:56:45.619Z,12.23
2022-07-30T03:59:17.940Z,15.80
2022-07-30T04:01:49.034Z,9.95
2022-07-30T04:04:20.035Z,11.10
2022-07-30T04:06:51.622Z,13.10
2022-07-30T04:09:22.449Z,12.10
2022-07-30T04:11:54.267Z,15.23
2022-07-30T04:14:25.052Z,10.28
2022-07-30T04:16:58.460Z,11.45
2022-07-30T04:19:32.049Z,10.48
2022-07-30T04:22:05.542Z,10.10
2022-07-30T04:24:37.489Z,10.75
2022-07-30T04:27:08.959Z,10.50
2022-07-30T04:29:40.039Z,10.18
2022-07-30T04:32:11.754Z,10.65
2022-07-30T04:34:45.871Z,10.72
2022-07-30T04:37:18.812Z,11.65
2022-07-30T04:39:51.228Z,10.90
2022-07-30T04:42:22.186Z,10.78
2022-07-30T04:44:53.416Z,10.35
2022-07-30T04:47:25.201Z,10.18
2022-07-30T04:49:57.495Z,11.57
2022-07-30T04:52:29.007Z,12.50
2022-07-30T04:55:03.403Z,10.72
2022-07-30T04:57:37.222Z,10.10
2022-07-30T05:00:10.017Z,11.63
2022-07-30T05:02:42.838Z,12.23
2022-07-30T05:05:16.513Z,11.20
2022-07-30T05:07:48.304Z,9.45
2022-07-30T05:10:20.437Z,8.68
2022-07-30T05:12:51.687Z,10.25
2022-07-30T05:15:22.617Z,9.38
2022-07-30T05:17:54.820Z,12.60
2022-07-30T05:20:25.457Z,9.73
2022-07-30T05:22:56.344Z,10.35
2022-07-30T05:25:27.180Z,9.03
2022-07-30T05:27:59.553Z,8.10
2022-07-30T05:30:30.277Z,10.53
2022-07-30T05:33:03.461Z,8.83
2022-07-30T05:35:33.396Z,9.10
2022-07-30T05:38:05.271Z,8.50
2022-07-30T05:40:36.006Z,9.68
2022-07-30T05:43:11.033Z,8.60
2022-07-30T05:45:42.008Z,9.03
2022-07-30T05:48:12.767Z,10.75
2022-07-30T05:50:43.741Z,11.88
2022-07-30T05:53:18.697Z,8.48
2022-07-30T05:55:49.716Z,11.18
2022-07-30T05:58:20.553Z,8.30
2022-07-30T06:00:51.600Z,7.78
2022-07-30T06:03:22.570Z,9.05
2022-07-30T06:05:53.229Z,9.50
2022-07-30T06:08:24.323Z,7.70
2022-07-30T06:10:57.170Z,6.95
2022-07-30T06:13:27.927Z,7.85
2022-07-30T06:15:58.763Z,11.15
2022-07-30T06:18:31.280Z,8.05
2022-07-30T06:21:02.105Z,8.08
2022-07-30T06:23:33.322Z,6.95
2022-07-30T06:26:04.259Z,6.80
2022-07-30T06:28:38.057Z,7.15
2022-07-30T06:31:07.816Z,6.53
2022-07-30T06:33:38.938Z,8.73
2022-07-30T06:36:14.024Z,6.80
2022-07-30T06:38:42.686Z,9.63
2022-07-30T06:41:13.973Z,8.78
2022-07-30T06:43:44.732Z,13.55
2022-07-30T06:46:16.017Z,8.20
2022-07-30T06:48:47.118Z,7.78
2022-07-30T06:51:18.062Z,7.90
2022-07-30T06:53:53.019Z,8.28
2022-07-30T06:56:25.358Z,9.88
2022-07-30T06:58:56.412Z,10.50
2022-07-30T07:01:27.331Z,13.98
2022-07-30T07:03:58.320Z,11.83
2022-07-30T07:06:29.384Z,8.30
2022-07-30T07:09:00.390Z,9.85
2022-07-30T07:11:31.138Z,10.95
2022-07-30T07:14:04.717Z,9.35
2022-07-30T07:16:34.461Z,7.47
2022-07-30T07:19:05.270Z,8.40
2022-07-30T07:21:36.273Z,8.03
2022-07-30T07:24:07.369Z,7.67
2022-07-30T07:26:38.897Z,8.15
2022-07-30T07:29:09.531Z,8.28
2022-07-30T07:32:05.499Z,10.00
2022-07-30T07:34:16.849Z,9.00
2022-07-30T07:36:48.213Z,7.42
2022-07-30T07:39:19.761Z,9.93
2022-07-30T07:41:51.491Z,8.20
2022-07-30T07:44:22.837Z,7.28
2022-07-30T07:46:53.770Z,9.68
2022-07-30T07:49:24.873Z,9.30
2022-07-30T07:51:56.220Z,10.30
2022-07-30T07:54:27.044Z,7.90
2022-07-30T07:56:58.439Z,7.97
2022-07-30T07:59:39.744Z,7.75
2022-07-30T08:02:05.946Z,8.60
2022-07-30T08:04:38.265Z,7.58
2022-07-30T08:07:09.378Z,7.20
2022-07-30T08:09:44.537Z,7.92
2022-07-30T08:12:16.205Z,9.33
2022-07-30T08:14:47.136Z,7.22
2022-07-30T08:17:18.333Z,7.80
2022-07-30T08:19:50.410Z,8.20
2022-07-30T08:22:21.464Z,9.95
2022-07-30T08:24:52.245Z,9.65
2022-07-30T08:27:23.550Z,10.58
2022-07-30T08:29:54.291Z,8.13
2022-07-30T08:32:25.133Z,10.93
2022-07-30T08:34:56.057Z,9.08
2022-07-30T08:37:27.096Z,13.28
2022-07-30T08:39:58.065Z,11.08
2022-07-30T08:42:32.823Z,7.80
2022-07-30T08:45:07.421Z,7.75
2022-07-30T08:47:38.758Z,11.55
2022-07-30T08:50:11.316Z,8.85
2022-07-30T08:52:59.408Z,10.95
2022-07-30T08:55:35.924Z,9.48
2022-07-30T08:58:09.283Z,10.30
2022-07-30T09:00:40.464Z,8.48
2022-07-30T09:03:13.782Z,6.53
2022-07-30T09:05:44.922Z,7.67
2022-07-30T09:08:18.643Z,9.30
2022-07-30T09:10:59.111Z,8.93
2022-07-30T09:13:32.782Z,8.05
2022-07-30T09:16:05.994Z,10.88
2022-07-30T09:18:39.362Z,8.43
2022-07-30T09:21:12.770Z,9.30
2022-07-30T09:23:50.898Z,8.05
2022-07-30T09:26:21.566Z,8.28
2022-07-30T09:28:55.236Z,8.13
2022-07-30T09:33:59.507Z,9.65
2022-07-30T09:36:32.849Z,7.05
2022-07-30T09:39:03.738Z,8.85
2022-07-30T09:41:39.773Z,9.18
2022-07-30T09:44:15.089Z,10.50
2022-07-30T09:46:49.494Z,8.38
2022-07-30T09:49:22.965Z,9.90
2022-07-30T09:51:56.964Z,11.75
2022-07-30T09:54:30.106Z,7.67
2022-07-30T09:57:22.839Z,8.48
2022-07-30T09:59:36.173Z,6.75
2022-07-30T10:02:10.249Z,7.65
2022-07-30T10:04:52.297Z,11.38
2022-07-30T10:07:42.877Z,9.25
2022-07-30T10:10:06.470Z,7.67
2022-07-30T10:12:38.944Z,8.18
2022-07-30T10:15:13.595Z,9.08
2022-07-30T10:18:01.220Z,6.45
2022-07-30T10:20:20.140Z,9.63
2022-07-30T10:22:57.936Z,6.83
2022-07-30T10:25:30.656Z,9.35
2022-07-30T10:31:08.339Z,6.58
2022-07-30T10:33:46.785Z,7.20
2022-07-30T10:36:19.352Z,11.57
2022-07-30T10:38:53.230Z,10.05
2022-07-30T10:41:47.554Z,7.85
2022-07-30T10:44:05.787Z,6.90
2022-07-30T10:46:42.603Z,11.10
2022-07-30T10:49:19.268Z,7.85
2022-07-30T10:54:36.508Z,8.93
2022-07-30T10:57:07.819Z,7.75
2022-07-30T10:59:41.316Z,7.78
2022-07-30T11:02:13.480Z,8.08
2022-07-30T11:04:49.296Z,9.10
2022-07-30T11:07:23.622Z,9.55
2022-07-30T11:10:08.791Z,8.23
2022-07-30T11:15:33.075Z,6.53
2022-07-30T11:18:02.484Z,7.87
2022-07-30T11:20:35.235Z,9.20
2022-07-30T11:23:13.968Z,8.35
2022-07-30T11:25:50.689Z,8.98
2022-07-30T11:28:19.309Z,14.75
2022-07-30T11:30:50.644Z,11.33
2022-07-30T11:33:32.983Z,8.98
2022-07-30T11:36:02.716Z,15.13
2022-07-30T11:38:36.349Z,9.18
2022-07-30T11:41:06.812Z,6.47
2022-07-30T11:43:38.457Z,8.78
2022-07-30T11:46:12.280Z,10.98
2022-07-30T11:48:46.456Z,9.40
2022-07-30T11:51:17.296Z,8.60
2022-07-30T11:53:48.146Z,9.20
2022-07-30T11:56:19.003Z,10.38
2022-07-30T11:58:50.233Z,12.60
2022-07-30T12:01:21.784Z,8.85
2022-07-30T12:03:53.013Z,8.63
2022-07-30T12:06:42.848Z,8.50
2022-07-30T12:08:59.181Z,9.15
2022-07-30T12:11:50.028Z,8.75
2022-07-30T12:14:20.892Z,7.20
2022-07-30T12:16:56.596Z,10.10
2022-07-30T12:19:29.009Z,7.27
2022-07-30T12:22:02.130Z,6.35
2022-07-30T12:24:33.042Z,6.30
2022-07-30T12:27:12.622Z,4.75
2022-07-30T12:29:38.912Z,4.97
2022-07-30T12:32:09.784Z,7.37
2022-07-30T12:34:40.793Z,6.42
2022-07-30T12:37:12.605Z,6.10
2022-07-30T12:39:45.553Z,5.12
2022-07-30T12:42:18.082Z,9.65
2022-07-30T12:44:50.603Z,6.65
2022-07-30T12:47:30.639Z,5.55
2022-07-30T12:49:57.743Z,4.33
2022-07-30T12:52:34.441Z,4.53
2022-07-30T12:55:08.873Z,7.37
2022-07-30T12:57:42.343Z,4.55
2022-07-30T13:00:13.687Z,5.05
2022-07-30T13:02:51.700Z,5.80
2022-07-30T13:05:22.838Z,6.00
2022-07-30T13:07:57.741Z,5.83
2022-07-30T13:10:34.966Z,4.58
2022-07-30T13:13:04.668Z,4.55
2022-07-30T13:15:39.240Z,5.65
2022-07-30T13:18:15.973Z,4.35
2022-07-30T13:20:49.128Z,9.63
2022-07-30T13:23:19.899Z,6.35
2022-07-30T13:25:52.257Z,5.22
2022-07-30T13:28:23.619Z,5.37
2022-07-30T13:30:55.513Z,5.50
2022-07-30T13:36:01.982Z,6.40
2022-07-30T13:38:33.408Z,8.60
2022-07-30T13:41:05.984Z,6.90
2022-07-30T13:46:48.642Z,7.15
2022-07-30T13:49:31.658Z,5.25
2022-07-30T13:52:02.343Z,5.35
2022-07-30T13:54:44.579Z,5.12
2022-07-30T13:57:15.313Z,7.05
2022-07-30T14:00:12.780Z,5.58
2022-07-30T14:02:47.574Z,6.95
2022-07-30T14:05:18.408Z,7.50
2022-07-30T14:07:49.284Z,8.53
2022-07-30T14:10:21.568Z,8.88
2022-07-30T14:12:57.017Z,7.90
2022-07-30T14:15:29.601Z,6.08
2022-07-30T14:18:02.195Z,6.62
2022-07-30T14:20:33.290Z,9.60
2022-07-30T14:23:04.240Z,8.40
2022-07-30T14:25:36.522Z,11.00
2022-07-30T14:28:07.512Z,8.65
2022-07-30T14:30:38.627Z,8.13
2022-07-30T14:33:15.762Z,12.43
2022-07-30T14:35:46.501Z,6.45
2022-07-30T14:38:18.792Z,6.95
2022-07-30T14:40:52.416Z,8.63
2022-07-30T14:43:25.814Z,8.30
2022-07-30T14:45:56.868Z,7.90
2022-07-30T14:48:27.957Z,8.95
2022-07-30T14:51:13.439Z,7.35
2022-07-30T14:53:42.618Z,6.85
2022-07-30T14:56:15.011Z,8.05
2022-07-30T14:58:50.006Z,8.53
2022-07-30T15:01:21.447Z,6.97
2022-07-30T15:03:53.053Z,10.80
2022-07-30T15:06:31.749Z,11.08
2022-07-30T15:08:58.055Z,8.75
2022-07-30T15:11:40.246Z,16.05
2022-07-30T15:14:03.668Z,12.37
2022-07-30T15:16:35.730Z,10.53
2022-07-30T15:19:06.686Z,9.33
2022-07-30T15:21:37.918Z,9.50
2022-07-30T15:24:09.268Z,7.95
2022-07-30T15:26:41.845Z,10.20
2022-07-30T15:29:20.497Z,9.73
2022-07-30T15:31:53.256Z,9.08
2022-07-30T15:34:24.190Z,12.20
2022-07-30T15:36:56.112Z,7.78
2022-07-30T15:39:28.892Z,10.38
2022-07-30T15:42:01.067Z,9.00
2022-07-30T15:44:33.995Z,8.88
2022-07-30T15:47:11.498Z,9.00
2022-07-30T15:49:40.262Z,8.85
2022-07-30T15:52:10.990Z,9.58
2022-07-30T15:54:45.515Z,9.03
2022-07-30T15:57:20.593Z,9.55
2022-07-30T16:00:00.875Z,7.37
2022-07-30T16:02:33.187Z,5.95
2022-07-30T16:05:04.542Z,5.87
2022-07-30T16:07:35.605Z,6.55
2022-07-30T16:10:07.654Z,5.42
2022-07-30T16:12:39.769Z,4.78
2022-07-30T16:15:19.445Z,5.45
2022-07-30T16:17:44.164Z,5.50
2022-07-30T16:20:15.290Z,7.35
2022-07-30T16:22:47.400Z,6.55
2022-07-30T16:25:19.529Z,6.42
2022-07-30T16:27:52.057Z,5.80
2022-07-30T16:30:24.258Z,8.28
2022-07-30T16:32:57.637Z,8.63
2022-07-30T16:35:28.618Z,6.22
2022-07-30T16:38:00.614Z,6.83
2022-07-30T16:40:33.056Z,5.62
2022-07-30T16:43:04.007Z,8.55
2022-07-30T16:45:34.923Z,5.03
2022-07-30T16:48:06.093Z,8.00
2022-07-30T16:50:37.006Z,7.15
2022-07-30T16:53:11.715Z,5.20
2022-07-30T16:55:40.117Z,9.30
2022-07-30T16:58:11.168Z,8.43
2022-07-30T17:00:42.744Z,6.45
2022-07-30T17:03:19.885Z,4.78
2022-07-30T17:05:46.427Z,6.35
2022-07-30T17:08:18.425Z,6.72
2022-07-30T17:10:49.464Z,5.60
2022-07-30T17:13:21.419Z,6.67
2022-07-30T17:15:52.438Z,6.62
2022-07-30T17:18:23.740Z,5.08
2022-07-30T17:20:55.733Z,7.72
2022-07-30T17:23:29.913Z,5.53
2022-07-30T17:26:00.725Z,6.95
2022-07-30T17:28:31.662Z,5.20
2022-07-30T17:31:02.613Z,8.73
2022-07-30T17:33:33.855Z,6.00
2022-07-30T17:36:10.623Z,6.30
2022-07-30T17:38:41.779Z,6.72
2022-07-30T17:41:13.580Z,4.67
2022-07-30T17:43:44.422Z,5.42
2022-07-30T17:46:15.586Z,6.08
2022-07-30T17:48:46.320Z,7.28
2022-07-30T17:51:17.265Z,7.53
2022-07-30T17:53:48.206Z,9.03
2022-07-30T17:56:26.897Z,7.87
2022-07-30T17:58:51.377Z,8.05
2022-07-30T18:01:22.482Z,6.67
2022-07-30T18:03:53.170Z,7.97
2022-07-30T18:06:24.421Z,8.03
2022-07-30T18:08:55.132Z,7.15
2022-07-30T18:11:26.525Z,7.35
2022-07-30T18:13:58.115Z,7.92
2022-07-30T18:16:29.066Z,6.53
2022-07-30T18:18:59.842Z,8.18
2022-07-30T18:21:30.830Z,7.03
2022-07-30T18:24:02.698Z,10.23
2022-07-30T18:26:36.346Z,12.45
2022-07-30T18:29:13.758Z,10.75
2022-07-30T18:31:40.656Z,9.10
2022-07-30T18:34:11.621Z,9.03
2022-07-30T18:36:42.644Z,8.05
2022-07-30T18:39:13.606Z,10.00
2022-07-30T18:41:44.563Z,12.50
2022-07-30T18:44:15.503Z,12.05
2022-07-30T18:46:46.740Z,10.63
2022-07-30T18:51:50.144Z,9.50
2022-07-30T18:54:20.981Z,11.10
2022-07-30T18:56:51.842Z,13.85
2022-07-30T18:59:22.673Z,12.45
2022-07-30T19:01:53.536Z,9.83
2022-07-30T19:04:24.290Z,11.43
2022-07-30T19:06:55.283Z,10.38
2022-07-30T19:09:26.316Z,8.18
2022-07-30T19:11:57.170Z,9.68
2022-07-30T19:14:28.204Z,8.65
2022-07-30T19:16:59.262Z,9.05
2022-07-30T19:19:30.920Z,10.00
2022-07-30T19:22:02.201Z,8.90
2022-07-30T19:24:33.213Z,10.45
2022-07-30T19:27:03.950Z,10.90
2022-07-30T19:29:35.087Z,7.90
2022-07-30T19:32:06.541Z,7.72
2022-07-30T19:34:37.965Z,8.70
2022-07-30T19:37:09.613Z,10.93
2022-07-30T19:40:05.712Z,10.05
2022-07-30T19:42:12.335Z,14.25
2022-07-30T19:44:43.363Z,12.07
2022-07-30T19:47:14.283Z,11.08
2022-07-30T19:49:46.452Z,7.87
2022-07-30T19:52:23.311Z,12.63
2022-07-30T19:54:50.794Z,7.60
2022-07-30T19:57:21.932Z,8.10
2022-07-30T20:00:00.186Z,7.40
2022-07-30T20:02:25.141Z,7.05
2022-07-30T20:04:57.828Z,7.60
2022-07-30T20:07:29.629Z,5.58
2022-07-30T20:10:01.853Z,5.67
2022-07-30T20:12:32.992Z,5.80
2022-07-30T20:15:04.188Z,9.55
2022-07-30T20:17:35.709Z,5.80
2022-07-30T20:20:07.771Z,6.35
2022-07-30T20:22:38.901Z,6.25
2022-07-30T20:25:11.932Z,4.08
2022-07-30T20:27:43.952Z,5.15
2022-07-30T20:30:15.441Z,6.20
2022-07-30T20:32:47.705Z,6.95
2022-07-30T20:35:19.893Z,7.03
2022-07-30T20:37:54.928Z,6.33
2022-07-30T20:40:24.037Z,7.15
2022-07-30T20:42:54.932Z,7.95
2022-07-30T20:45:26.847Z,5.22
2022-07-30T20:47:59.146Z,6.47
2022-07-30T20:50:30.462Z,9.03
2022-07-30T20:53:02.779Z,8.50
2022-07-30T20:55:34.845Z,4.92
2022-07-30T20:58:17.281Z,7.00
2022-07-30T21:00:40.806Z,6.65
2022-07-30T21:03:13.729Z,7.33
2022-07-30T21:05:45.525Z,10.28
2022-07-30T21:08:17.916Z,6.40
2022-07-30T21:10:48.932Z,6.97
2022-07-30T21:13:20.315Z,7.15
2022-07-30T21:16:02.010Z,8.00
2022-07-30T21:18:26.537Z,5.75
2022-07-30T21:20:58.687Z,5.95
2022-07-30T21:23:31.060Z,7.20
2022-07-30T21:26:07.089Z,6.42
2022-07-30T21:28:36.395Z,6.15
2022-07-30T21:31:07.741Z,8.15
2022-07-30T21:33:39.602Z,5.30
2022-07-30T21:36:11.090Z,7.03
2022-07-30T21:38:43.752Z,9.80
2022-07-30T21:41:15.439Z,5.95
2022-07-30T21:43:49.263Z,8.30
2022-07-30T21:46:24.851Z,7.08
2022-07-30T21:48:56.524Z,6.20
2022-07-30T21:51:26.006Z,6.15
2022-07-30T21:53:57.891Z,6.30
2022-07-30T21:56:28.910Z,5.95
2022-07-30T21:59:08.720Z,5.95
2022-07-30T22:01:41.867Z,6.15
2022-07-30T22:04:12.888Z,5.62
2022-07-30T22:06:45.121Z,6.58
2022-07-30T22:09:33.009Z,6.87
2022-07-30T22:11:50.830Z,6.70
2022-07-30T22:14:21.799Z,6.50
2022-07-30T22:16:52.648Z,7.28
2022-07-30T22:19:23.759Z,5.30
2022-07-30T22:21:56.630Z,6.33
2022-07-30T22:24:30.082Z,4.75
2022-07-30T22:27:02.072Z,7.87
2022-07-30T22:29:34.756Z,5.80
2022-07-30T22:32:07.776Z,5.80
2022-07-30T22:34:38.902Z,5.10
2022-07-30T22:37:12.845Z,5.12
2022-07-30T22:39:50.965Z,5.90
2022-07-30T22:42:17.360Z,5.20
2022-07-30T22:44:48.497Z,7.08
2022-07-30T22:47:21.970Z,9.05
2022-07-30T22:49:57.907Z,12.15
2022-07-30T22:52:29.965Z,12.23
2022-07-30T22:55:03.369Z,9.73
2022-07-30T22:57:29.746Z,8.50
2022-07-30T23:00:02.334Z,7.47
2022-07-30T23:02:33.278Z,8.63
2022-07-30T23:05:04.304Z,5.83
2022-07-30T23:07:39.779Z,6.03
2022-07-30T23:10:17.075Z,6.80
2022-07-30T23:12:41.267Z,6.33
2022-07-30T23:15:12.852Z,6.78
2022-07-30T23:17:44.596Z,7.28
2022-07-30T23:20:18.002Z,6.50
2022-07-30T23:22:49.070Z,9.55
2022-07-30T23:25:20.834Z,5.80
2022-07-30T23:27:53.118Z,6.53
2022-07-30T23:30:24.043Z,7.87
2022-07-30T23:32:56.516Z,5.33
2022-07-30T23:35:27.456Z,6.95
2022-07-30T23:37:58.807Z,6.60
2022-07-30T23:40:29.950Z,8.83
2022-07-30T23:43:00.888Z,8.50
2022-07-30T23:45:31.945Z,6.50
2022-07-30T23:48:03.467Z,8.15
2022-07-30T23:50:35.630Z,11.65
2022-07-30T23:53:07.757Z,8.80
2022-07-30T23:55:39.366Z,6.45
2022-07-30T23:58:11.028Z,8.88
